Boutte, LA

3:19 PM CDT on May 22, 2015 (GMT -0500)
New Orleans Naval Air Station | | Change Station
CLOSE
Current Station
Airport
Location: New Orleans NAS,
Elevation: 3 ft
Nearby Weather Stations

Elev 3 ft 29.83 °N, 90.04 °W | Updated 24 minutes ago

Partly Cloudy
Partly Cloudy
79 °F
Feels Like 79 °F
N
5
Wind Variable Wind from Variable

Today
High -- | Low -- °F
--% Chance of Precip.
Yesterday
High -- | Low -- °F
Precip. -- in
6:04 AM 7:52 PM
Waxing Crescent, 23% visible
Pressure 30.15 in
Visibility 10.0 miles
Clouds Few 3000 ft
Few 12000 ft
Scattered Clouds 25000 ft
Dew Point 65 °F
Humidity 62%
Rainfall 0.00 in
Snow Depth Not available.
UV 9 out of 12
Pollen 4.60 out of 12
Air Quality Not available.
Flu Activity Sporadic
METAR KNBG 221955Z VRB04KT 10SM FEW030 FEW120 SCT250 26/18 A3015 RMK AO2 SLP208 T02610183 $

More Conditions Fewer Conditions

Pressure 30.15 in
Visibility 10.0 miles
Clouds Few 3000 ft
Few 12000 ft
Scattered Clouds 25000 ft
Dew Point 65 °F
Humidity 62%
Rainfall 0.00 in
Snow Depth Not available.
UV 9 out of 12
Pollen 4.60 out of 12
Air Quality Not available.
Flu Activity Sporadic
METAR KNBG 221955Z VRB04KT 10SM FEW030 FEW120 SCT250 26/18 A3015 RMK AO2 SLP208 T02610183 $

More Conditions Fewer Conditions

10-Day Weather Forecast

Almanac

Astronomy

May. 22, 2015 Rise Set
Actual Time
Civil Twilight
Nautical Twilight
Astronomical Twilight
Moon
Length of Visible Light
Length of Day
Tomorrow will be .
, % of the Moon is Illuminated

Today's Extremes

State Highs State Lows

Community

WunderPhotos

Upload Photos

1,823,288 photos uploaded!

WunderBlogs® & News

Nearby

Air Quality

  Air Quality AQ Index Pollutant
Not available.

Snow Depth

Station Depth Elevation

Earthquake Activity

City Distance Mag. Time & Date
Minimum magnitude displayed is 2.5.

Coastal Water Temperatures

Place Temperature

Stations

Nearby Weather Stations

Station Location Temp. Windchill Dew Point Humidity Wind Precip. Elev Updated Type